Time;durP1;ratioP1;P1;durP2;ratioP2;P2;SDS_P1;SDS_P2;PMS_P1;PMS_P2;Temp;Humidity;BMP_temperature;BMP_pressure;BME280_temperature;BME280_humidity;BME280_pressure;Samples;Min_cycle;Max_cycle;Signal;HPM_P1;HPM_P2
2023/07/17 00:00:25;;;;;;;16.08;13.05;;;665.90;1792.00;;;;;;5095944;28;20487;-79
2023/07/17 00:02:51;;;;;;;18.27;14.20;;;665.90;1740.80;;;;;;5097005;28;20028;-78
2023/07/17 00:05:17;;;;;;;15.27;13.27;;;665.70;1715.20;;;;;;5096176;28;20024;-80
2023/07/17 00:07:43;;;;;;;19.08;13.65;;;665.70;1689.60;;;;;;5096089;28;20036;-80
2023/07/17 00:10:10;;;;;;;15.48;13.95;;;665.80;1612.80;;;;;;5095617;28;20411;-80
2023/07/17 00:12:36;;;;;;;15.68;14.07;;;665.80;1587.20;;;;;;5096853;28;20101;-80
2023/07/17 00:15:06;;;;;;;16.85;13.25;;;665.70;1638.40;;;;;;5095572;28;20024;-80
2023/07/17 00:17:33;;;;;;;25.98;14.70;;;665.80;1638.40;;;;;;5095420;28;20085;-80
2023/07/17 00:19:59;;;;;;;19.80;13.68;;;665.80;1715.20;;;;;;5095794;28;20603;-80
2023/07/17 00:22:25;;;;;;;20.90;14.55;;;665.90;1484.80;;;;;;5100228;28;20073;-80
2023/07/17 00:24:52;;;;;;;16.15;12.95;;;665.90;1612.80;;;;;;5096915;28;20028;-80
2023/07/17 00:27:19;;;;;;;19.05;13.65;;;665.90;1408.00;;;;;;5089936;28;20400;-80
2023/07/17 00:29:45;;;;;;;16.45;13.68;;;665.80;1612.80;;;;;;5083061;28;20031;-80
2023/07/17 00:32:11;;;;;;;21.63;14.13;;;665.70;1715.20;;;;;;5095001;28;20032;-81
2023/07/17 00:34:39;;;;;;;17.60;13.98;;;640.90;1612.80;;;;;;5095598;28;20093;-80
2023/07/17 00:37:05;;;;;;;20.25;14.13;;;665.60;1484.80;;;;;;5094944;28;20445;-80
2023/07/17 00:39:30;;;;;;;14.80;13.40;;;665.60;1356.80;;;;;;5095190;28;20056;-80
2023/07/17 00:41:58;;;;;;;17.23;13.68;;;640.90;1612.80;;;;;;5096492;28;20024;-80
2023/07/17 00:44:24;;;;;;;16.38;14.63;;;665.60;1587.20;;;;;;5094832;28;20569;-80
2023/07/17 00:46:52;;;;;;;15.35;13.40;;;640.60;1740.80;;;;;;5095089;28;20464;-80
2023/07/17 00:49:19;;;;;;;16.90;14.57;;;640.70;1612.80;;;;;;5095118;28;20470;-80
2023/07/17 00:51:45;;;;;;;18.10;13.85;;;640.70;1561.60;;;;;;5096215;28;20095;-80
2023/07/17 00:54:15;;;;;;;17.25;13.57;;;640.60;1792.00;;;;;;5095162;28;20078;-80
2023/07/17 00:56:43;;;;;;;16.25;13.50;;;640.60;1664.00;;;;;;5095261;28;20034;-80
2023/07/17 00:59:09;;;;;;;16.38;13.98;;;640.60;1664.00;;;;;;5095110;28;20032;-80
2023/07/17 01:01:35;;;;;;;14.32;12.65;;;640.50;1766.40;;;;;;5098995;28;20028;-80
2023/07/17 01:04:05;;;;;;;17.23;13.52;;;640.50;1715.20;;;;;;5102586;28;20028;-79
2023/07/17 01:06:31;;;;;;;17.08;13.15;;;640.30;1689.60;;;;;;5101928;28;20361;-80
2023/07/17 01:08:58;;;;;;;16.02;13.25;;;640.30;1868.80;;;;;;5102001;28;20531;-79
2023/07/17 01:11:24;;;;;;;17.17;13.82;;;640.60;1536.00;;;;;;5096226;28;20028;-80
2023/07/17 01:13:51;;;;;;;16.58;14.13;;;640.60;1587.20;;;;;;5094582;28;20035;-80
2023/07/17 01:16:17;;;;;;;19.13;13.90;;;640.60;1638.40;;;;;;5094452;28;20164;-80
2023/07/17 01:18:43;;;;;;;16.13;12.98;;;640.10;1459.20;;;;;;5095384;28;20028;-80
2023/07/17 01:21:12;;;;;;;18.65;14.20;;;640.50;1587.20;;;;;;5094357;28;20028;-79
2023/07/17 01:23:38;;;;;;;18.33;13.38;;;640.40;1868.80;;;;;;5095337;28;20099;-80
2023/07/17 01:26:18;;;;;;;14.80;13.23;;;640.40;1843.20;;;;;;5094019;28;20599;-80
2023/07/17 01:28:45;;;;;;;15.70;12.95;;;640.30;1817.60;;;;;;5094228;28;20032;-80
2023/07/17 01:31:11;;;;;;;17.67;12.93;;;640.20;1843.20;;;;;;5087942;28;20033;-80
2023/07/17 01:33:37;;;;;;;19.40;13.88;;;640.30;1843.20;;;;;;5075838;28;20029;-79
2023/07/17 01:36:05;;;;;;;18.02;14.63;;;640.20;1920.00;;;;;;5075659;28;20021;-80
2023/07/17 01:38:31;;;;;;;20.90;14.23;;;640.10;2432.00;;;;;;5073898;28;20033;-80
2023/07/17 01:40:57;;;;;;;17.25;13.50;;;640.20;2048.00;;;;;;5073507;28;20020;-80
2023/07/17 01:43:23;;;;;;;16.40;14.02;;;640.20;1945.60;;;;;;5073591;28;20448;-80
2023/07/17 01:45:49;;;;;;;15.48;13.65;;;640.10;1971.20;;;;;;5073696;28;20036;-80
2023/07/17 01:48:17;;;;;;;15.55;12.52;;;640.00;2176.00;;;;;;5074205;28;20071;-80
2023/07/17 01:50:46;;;;;;;15.25;13.38;;;640.00;1996.80;;;;;;5073540;28;20090;-81
2023/07/17 01:53:13;;;;;;;17.50;14.70;;;640.00;2073.60;;;;;;5074455;28;20020;-80
2023/07/17 01:55:38;;;;;;;16.70;12.70;;;640.00;2176.00;;;;;;5073651;28;20028;-80
2023/07/17 01:58:04;;;;;;;16.45;13.73;;;640.00;2124.80;;;;;;5073323;28;20514;-80
2023/07/17 02:00:30;;;;;;;15.98;14.20;;;615.30;2201.60;;;;;;5073178;28;20027;-80
2023/07/17 02:02:56;;;;;;;16.20;13.80;;;615.30;2227.20;;;;;;5073243;28;20111;-80
2023/07/17 02:05:22;;;;;;;17.70;13.43;;;615.30;2201.60;;;;;;5074458;28;20036;-80
2023/07/17 02:07:47;;;;;;;19.48;14.35;;;615.00;2124.80;;;;;;5072765;28;20040;-80
2023/07/17 02:10:13;;;;;;;18.23;13.98;;;615.20;2355.20;;;;;;5073003;28;20499;-80
2023/07/17 02:12:39;;;;;;;16.17;14.13;;;615.30;2329.60;;;;;;5072736;28;20532;-80
2023/07/17 02:15:12;;;;;;;18.83;13.55;;;615.20;2227.20;;;;;;5072796;28;20051;-80
2023/07/17 02:17:37;;;;;;;16.77;13.20;;;615.20;2432.00;;;;;;5072436;28;20033;-80
2023/07/17 02:20:08;;;;;;;18.45;12.90;;;615.20;2304.00;;;;;;5072764;28;20021;-80
2023/07/17 02:22:34;;;;;;;15.60;14.00;;;640.00;1920.00;;;;;;5074360;28;20051;-80
2023/07/17 02:25:00;;;;;;;17.48;14.20;;;615.30;2150.40;;;;;;5073091;28;20381;-80
2023/07/17 02:27:26;;;;;;;15.40;13.40;;;615.20;2227.20;;;;;;5072709;28;20032;-79
2023/07/17 02:29:52;;;;;;;19.05;14.45;;;615.20;2150.40;;;;;;5072443;28;20028;-80
2023/07/17 02:32:18;;;;;;;15.73;12.70;;;615.30;2022.40;;;;;;5073911;28;20021;-80
2023/07/17 02:34:43;;;;;;;15.73;14.05;;;615.20;2022.40;;;;;;5072610;28;20074;-80
2023/07/17 02:37:10;;;;;;;15.85;13.63;;;615.30;2099.20;;;;;;5072323;28;20078;-80
2023/07/17 02:39:36;;;;;;;15.25;13.65;;;615.20;2150.40;;;;;;5072661;28;20036;-80
2023/07/17 02:42:02;;;;;;;14.98;13.38;;;615.10;2227.20;;;;;;5072220;28;20024;-79
2023/07/17 02:44:28;;;;;;;15.20;13.60;;;615.20;2124.80;;;;;;5072563;28;20028;-80
2023/07/17 02:46:54;;;;;;;16.77;14.73;;;614.90;2432.00;;;;;;5072476;28;20051;-80
2023/07/17 02:49:19;;;;;;;14.02;12.52;;;614.90;2432.00;;;;;;5073564;28;20028;-80
2023/07/17 02:51:45;;;;;;;18.77;15.13;;;615.00;2304.00;;;;;;5073814;28;20100;-80
2023/07/17 02:54:12;;;;;;;18.98;13.07;;;615.20;2150.40;;;;;;5072667;28;20482;-80
2023/07/17 02:56:38;;;;;;;14.88;12.52;;;615.20;2124.80;;;;;;5072564;28;20033;-80
2023/07/17 02:59:05;;;;;;;16.98;13.15;;;615.20;2073.60;;;;;;5072367;28;20028;-80
2023/07/17 03:01:31;;;;;;;16.73;14.77;;;615.00;2406.40;;;;;;5071330;28;20044;-80
2023/07/17 03:03:57;;;;;;;17.55;14.23;;;614.90;2432.00;;;;;;5072120;28;20045;-80
2023/07/17 03:06:22;;;;;;;15.32;13.77;;;615.00;2432.00;;;;;;5074356;28;20066;-80
2023/07/17 03:08:48;;;;;;;16.73;14.43;;;615.00;2329.60;;;;;;5091929;28;20104;-80
2023/07/17 03:11:14;;;;;;;19.65;14.68;;;614.90;2432.00;;;;;;5093159;28;20027;-81
2023/07/17 03:13:40;;;;;;;18.92;13.40;;;614.90;2278.40;;;;;;5092248;28;20379;-80
2023/07/17 03:16:05;;;;;;;17.10;13.80;;;614.90;2380.80;;;;;;5093619;28;20468;-80
2023/07/17 03:18:31;;;;;;;17.35;14.35;;;614.80;2380.80;;;;;;5093414;28;20457;-80
2023/07/17 03:20:57;;;;;;;19.05;14.38;;;614.70;2432.00;;;;;;5092338;28;20016;-80
2023/07/17 03:23:23;;;;;;;18.05;13.30;;;614.80;2432.00;;;;;;5092373;28;20028;-80
2023/07/17 03:25:48;;;;;;;18.52;14.80;;;614.80;2432.00;;;;;;5092152;28;20072;-80
2023/07/17 03:28:14;;;;;;;17.10;13.65;;;614.80;2432.00;;;;;;5092216;28;20057;-80
2023/07/17 03:30:40;;;;;;;17.92;12.70;;;614.80;2432.00;;;;;;5080940;28;20503;-79
2023/07/17 03:33:06;;;;;;;16.67;14.70;;;614.80;2432.00;;;;;;5076334;28;20144;-80
2023/07/17 03:35:35;;;;;;;16.73;13.88;;;614.90;2304.00;;;;;;5077379;28;20046;-80
2023/07/17 03:38:01;;;;;;;21.63;14.10;;;614.90;2432.00;;;;;;5076699;28;20039;-80
2023/07/17 03:40:26;;;;;;;17.10;14.65;;;614.90;2406.40;;;;;;5076057;28;20024;-80
2023/07/17 03:42:52;;;;;;;17.63;13.85;;;614.90;2278.40;;;;;;5076056;28;20062;-80
2023/07/17 03:45:18;;;;;;;17.45;14.05;;;614.90;2176.00;;;;;;5076938;28;20460;-80
2023/07/17 03:47:44;;;;;;;20.70;14.13;;;614.90;2355.20;;;;;;5077142;28;20456;-80
2023/07/17 03:50:10;;;;;;;16.75;14.30;;;614.80;2432.00;;;;;;5077102;28;20031;-80
2023/07/17 03:52:36;;;;;;;17.50;13.68;;;614.90;2432.00;;;;;;5075666;28;20040;-80
2023/07/17 03:55:02;;;;;;;18.70;14.80;;;614.80;2432.00;;;;;;5075747;28;20411;-80
2023/07/17 03:57:28;;;;;;;17.55;15.68;;;614.80;2432.00;;;;;;5075717;28;20464;-80
2023/07/17 03:59:55;;;;;;;16.40;14.38;;;614.70;2432.00;;;;;;5075561;28;20020;-80
2023/07/17 04:02:22;;;;;;;16.25;14.65;;;614.70;2432.00;;;;;;5076613;28;20027;-80
2023/07/17 04:04:48;;;;;;;19.75;15.38;;;614.60;2432.00;;;;;;5100951;28;20036;-80
2023/07/17 04:07:15;;;;;;;18.95;14.95;;;614.60;2432.00;;;;;;5078892;28;20029;-80
2023/07/17 04:09:40;;;;;;;19.38;15.57;;;614.60;2432.00;;;;;;5075050;28;20059;-79
2023/07/17 04:12:07;;;;;;;20.17;14.20;;;614.70;2432.00;;;;;;5076811;28;20017;-80
2023/07/17 04:14:34;;;;;;;20.77;15.23;;;614.70;2432.00;;;;;;5076478;28;20025;-80
2023/07/17 04:17:00;;;;;;;18.90;14.10;;;614.80;2432.00;;;;;;5075436;28;20531;-80
2023/07/17 04:19:30;;;;;;;18.98;14.65;;;614.90;2432.00;;;;;;5075327;28;20024;-80
2023/07/17 04:21:55;;;;;;;19.05;15.65;;;615.00;2432.00;;;;;;5076270;28;20029;-80
2023/07/17 04:24:23;;;;;;;16.08;14.38;;;614.90;2432.00;;;;;;5075170;28;20112;-80
2023/07/17 04:26:50;;;;;;;17.05;15.25;;;614.90;2432.00;;;;;;5076113;28;20157;-79
2023/07/17 04:29:16;;;;;;;19.33;14.57;;;614.90;2432.00;;;;;;5074763;28;20468;-79
2023/07/17 04:31:42;;;;;;;24.25;14.63;;;615.00;2432.00;;;;;;5076583;28;20031;-80
2023/07/17 04:34:08;;;;;;;22.83;16.38;;;615.00;2432.00;;;;;;5074865;28;20035;-80
2023/07/17 04:36:34;;;;;;;21.42;14.77;;;614.90;2432.00;;;;;;5075084;28;20029;-80
2023/07/17 04:39:00;;;;;;;19.30;14.30;;;614.90;2432.00;;;;;;5074992;28;20039;-80
2023/07/17 04:41:26;;;;;;;19.75;15.40;;;615.00;2432.00;;;;;;5073977;28;20115;-80
2023/07/17 04:43:51;;;;;;;19.73;14.70;;;615.00;2432.00;;;;;;5074828;28;20090;-80
2023/07/17 04:46:18;;;;;;;20.60;14.48;;;615.00;2380.80;;;;;;5074827;28;20116;-81
2023/07/17 04:48:44;;;;;;;22.50;15.05;;;615.00;2432.00;;;;;;5074060;28;20032;-80
2023/07/17 04:51:09;;;;;;;18.90;14.55;;;615.00;2432.00;;;;;;5076169;28;20036;-80
2023/07/17 04:53:35;;;;;;;17.50;14.85;;;615.10;2432.00;;;;;;5074858;28;20025;-80
2023/07/17 04:56:01;;;;;;;17.77;14.75;;;615.10;2432.00;;;;;;5076041;28;20103;-80
2023/07/17 04:58:27;;;;;;;24.42;14.70;;;615.10;2432.00;;;;;;5074513;28;20032;-80
2023/07/17 05:01:03;;;;;;;20.63;16.00;;;615.10;2432.00;;;;;;5075795;28;20021;-80
2023/07/17 05:03:30;;;;;;;22.73;14.70;;;615.00;2432.00;;;;;;5074255;28;20033;-80
2023/07/17 05:05:56;;;;;;;21.10;15.18;;;615.20;2432.00;;;;;;5074575;28;20484;-80
2023/07/17 05:08:25;;;;;;;24.27;16.60;;;615.30;2432.00;;;;;;5074314;28;20381;-80
2023/07/17 05:10:59;;;;;;;20.92;15.45;;;615.20;2432.00;;;;;;5074738;28;20055;-79
2023/07/17 05:13:25;;;;;;;20.35;16.17;;;615.30;2432.00;;;;;;5074305;28;20465;-80
2023/07/17 05:15:52;;;;;;;19.38;15.70;;;640.00;2432.00;;;;;;5074264;28;20362;-80
2023/07/17 05:18:18;;;;;;;18.13;15.15;;;640.10;2432.00;;;;;;5074200;28;20029;-80
2023/07/17 05:20:49;;;;;;;23.17;15.05;;;640.20;2355.20;;;;;;5074204;28;20025;-80
2023/07/17 05:23:14;;;;;;;17.50;15.15;;;640.20;2406.40;;;;;;5074683;28;20028;-80
2023/07/17 05:25:50;;;;;;;21.15;15.68;;;640.30;2278.40;;;;;;5074147;28;20025;-80
2023/07/17 05:28:16;;;;;;;19.63;14.93;;;640.40;2124.80;;;;;;5074173;28;20085;-80
2023/07/17 05:30:41;;;;;;;20.33;15.30;;;640.40;2304.00;;;;;;5075598;28;20453;-80
2023/07/17 05:33:07;;;;;;;16.77;14.90;;;640.50;2150.40;;;;;;5074633;28;20105;-80
2023/07/17 05:35:33;;;;;;;23.40;15.60;;;640.60;2099.20;;;;;;5074566;28;20043;-80
2023/07/17 05:37:58;;;;;;;19.65;15.30;;;640.60;2150.40;;;;;;5074923;28;20112;-80
2023/07/17 05:40:25;;;;;;;17.85;15.52;;;640.70;2073.60;;;;;;5073906;28;20377;-80
2023/07/17 05:42:51;;;;;;;19.13;14.63;;;640.90;1971.20;;;;;;5073804;28;20025;-81
2023/07/17 05:45:16;;;;;;;20.88;14.75;;;640.80;1971.20;;;;;;5074401;28;20027;-80
2023/07/17 05:47:42;;;;;;;16.70;14.90;;;640.90;2048.00;;;;;;5073233;28;20473;-80
2023/07/17 05:50:09;;;;;;;17.58;13.68;;;665.60;1920.00;;;;;;5075235;28;20065;-81
2023/07/17 05:52:35;;;;;;;16.17;13.55;;;665.70;1868.80;;;;;;5074274;28;20074;-81
2023/07/17 05:55:02;;;;;;;20.98;14.50;;;665.80;1638.40;;;;;;5074885;28;20021;-81
2023/07/17 05:57:28;;;;;;;19.65;14.70;;;665.80;1945.60;;;;;;5073578;28;20064;-80
2023/07/17 05:59:54;;;;;;;21.42;14.80;;;665.90;2022.40;;;;;;5073130;28;20394;-80
2023/07/17 06:02:20;;;;;;;15.70;13.98;;;665.90;1971.20;;;;;;5074775;28;20091;-81
2023/07/17 06:04:46;;;;;;;15.55;13.95;;;665.90;1843.20;;;;;;5073259;28;20029;-81
2023/07/17 06:07:13;;;;;;;15.45;13.60;;;666.00;1740.80;;;;;;5072508;28;20032;-81
2023/07/17 06:09:39;;;;;;;16.80;13.93;;;666.00;1715.20;;;;;;5073829;28;20048;-81
2023/07/17 06:12:05;;;;;;;18.00;13.38;;;666.00;1766.40;;;;;;5072685;28;20024;-80
2023/07/17 06:14:31;;;;;;;21.38;14.80;;;666.20;1536.00;;;;;;5072937;28;20024;-81
2023/07/17 06:16:57;;;;;;;18.90;14.25;;;666.30;1510.40;;;;;;5073092;28;20025;-80
2023/07/17 06:19:23;;;;;;;20.77;13.65;;;666.30;1382.40;;;;;;5072880;28;20085;-80
2023/07/17 06:21:49;;;;;;;21.30;13.45;;;666.50;1254.40;;;;;;5072938;28;20032;-78
2023/07/17 06:24:14;;;;;;;19.77;14.02;;;691.20;1075.20;;;;;;5073833;28;20021;-78
2023/07/17 06:26:41;;;;;;;15.77;12.68;;;691.40;972.80;;;;;;5072597;28;20024;-77
2023/07/17 06:29:09;;;;;;;18.30;13.13;;;691.60;640.00;;;;;;5071975;28;20037;-78
2023/07/17 06:31:35;;;;;;;15.63;13.07;;;691.80;844.80;;;;;;5072924;28;20354;-78
2023/07/17 06:34:01;;;;;;;19.08;14.00;;;692.10;819.20;;;;;;5073954;28;20032;-78
2023/07/17 06:36:26;;;;;;;16.83;12.88;;;716.80;1228.80;;;;;;5072806;28;20024;-78
2023/07/17 06:38:53;;;;;;;17.20;13.00;;;716.80;844.80;;;;;;5072599;28;20039;-79
2023/07/17 06:41:19;;;;;;;17.15;13.05;;;717.10;1203.20;;;;;;5071541;28;20047;-78
2023/07/17 06:43:45;;;;;;;23.80;14.82;;;717.20;1254.40;;;;;;5073944;28;20016;-79
2023/07/17 06:46:10;;;;;;;18.13;13.55;;;717.30;1382.40;;;;;;5072875;28;20051;-80
2023/07/17 06:48:36;;;;;;;21.63;19.30;;;717.40;1433.60;;;;;;5082986;28;20063;-80
2023/07/17 06:51:05;;;;;;;22.48;16.10;;;717.40;1536.00;;;;;;5092863;28;20032;-79
2023/07/17 06:53:31;;;;;;;22.45;19.48;;;717.50;1715.20;;;;;;5092949;28;20077;-79
2023/07/17 06:55:58;;;;;;;26.60;22.75;;;717.70;1715.20;;;;;;5092608;28;20122;-80
2023/07/17 06:58:24;;;;;;;18.73;14.80;;;717.70;1075.20;;;;;;5094032;28;20159;-80
2023/07/17 07:00:57;;;;;;;23.75;21.23;;;742.50;1561.60;;;;;;5092672;28;20047;-80
2023/07/17 07:03:24;;;;;;;16.77;14.82;;;742.50;1254.40;;;;;;5105116;28;20036;-81
2023/07/17 07:05:55;;;;;;;30.75;27.50;;;742.60;1100.80;;;;;;5108472;28;20024;-79
2023/07/17 07:08:21;;;;;;;18.80;16.90;;;742.60;1203.20;;;;;;5072788;28;20043;-78
2023/07/17 07:10:51;;;;;;;19.33;16.23;;;742.50;1433.60;;;;;;5071878;28;20044;-79
2023/07/17 07:13:16;;;;;;;27.60;24.83;;;717.70;1280.00;;;;;;5071870;28;20025;-79
2023/07/17 07:15:42;;;;;;;20.30;15.85;;;742.50;1356.80;;;;;;5072045;28;20380;-80
2023/07/17 07:18:08;;;;;;;35.05;29.77;;;742.70;1356.80;;;;;;5072187;28;20032;-81
2023/07/17 07:20:33;;;;;;;17.08;15.27;;;742.90;1356.80;;;;;;5071856;28;20036;-79
2023/07/17 07:22:59;;;;;;;23.73;16.08;;;743.00;1254.40;;;;;;5072141;28;20119;-82
2023/07/17 07:25:25;;;;;;;13.45;11.57;;;743.10;1177.60;;;;;;5071999;28;20029;-82
2023/07/17 07:27:51;;;;;;;15.80;13.13;;;743.00;1382.40;;;;;;5073307;28;20032;-82
2023/07/17 07:30:16;;;;;;;15.00;12.90;;;743.00;1203.20;;;;;;5071967;28;20032;-81
2023/07/17 07:32:42;;;;;;;16.85;13.18;;;743.30;1254.40;;;;;;5072067;28;20428;-82
2023/07/17 07:35:08;;;;;;;17.58;12.02;;;768.10;1254.40;;;;;;5071027;28;20024;-81
2023/07/17 07:37:34;;;;;;;17.65;13.18;;;768.30;1228.80;;;;;;5083693;28;20032;-83
2023/07/17 07:40:00;;;;;;;16.17;12.65;;;768.40;1484.80;;;;;;5092237;28;20028;-82
2023/07/17 07:42:26;;;;;;;14.07;12.55;;;768.60;1382.40;;;;;;5092282;28;20030;-83
2023/07/17 07:44:52;;;;;;;16.08;12.00;;;768.70;1305.60;;;;;;5093240;28;20103;-80
2023/07/17 07:47:18;;;;;;;17.92;14.05;;;768.90;1331.20;;;;;;5092288;28;20070;-82
2023/07/17 07:49:43;;;;;;;16.40;12.10;;;793.70;1689.60;;;;;;5093465;28;20483;-81
2023/07/17 07:52:09;;;;;;;14.77;12.23;;;793.70;1740.80;;;;;;5091880;28;20161;-82
2023/07/17 07:54:35;;;;;;;17.55;12.10;;;794.00;1740.80;;;;;;5092236;28;20485;-82
2023/07/17 07:57:01;;;;;;;22.58;11.68;;;793.70;1894.40;;;;;;5091976;28;20125;-81
2023/07/17 07:59:27;;;;;;;18.85;12.48;;;793.80;1484.80;;;;;;5092548;28;20220;-81
2023/07/17 08:01:52;;;;;;;14.05;11.02;;;793.70;1459.20;;;;;;5092017;28;20380;-81
2023/07/17 08:04:18;;;;;;;16.35;13.27;;;793.70;1459.20;;;;;;5092181;28;20099;-80
2023/07/17 08:06:44;;;;;;;21.25;15.60;;;794.00;1740.80;;;;;;5102630;28;20030;-83
2023/07/17 08:09:10;;;;;;;27.90;24.35;;;794.00;1740.80;;;;;;5100472;28;20052;-81
2023/07/17 08:11:36;;;;;;;16.88;13.48;;;794.20;1740.80;;;;;;5099192;28;20027;-81
2023/07/17 08:14:02;;;;;;;14.23;12.30;;;794.50;1664.00;;;;;;5093736;28;20024;-82
2023/07/17 08:16:28;;;;;;;14.13;12.40;;;819.20;2176.00;;;;;;5093400;28;20113;-82
2023/07/17 08:18:54;;;;;;;17.10;13.38;;;794.20;2048.00;;;;;;5094649;28;20028;-82
2023/07/17 08:21:20;;;;;;;24.20;20.08;;;794.20;2022.40;;;;;;5095426;28;20032;-81
2023/07/17 08:23:46;;;;;;;13.18;11.40;;;794.50;2201.60;;;;;;5095512;28;20020;-82
2023/07/17 08:26:12;;;;;;;18.17;11.95;;;794.50;1920.00;;;;;;5096149;28;20022;-82
2023/07/17 08:28:37;;;;;;;18.95;12.85;;;819.20;1996.80;;;;;;5095433;28;20491;-83
2023/07/17 08:31:03;;;;;;;15.85;12.35;;;819.20;1996.80;;;;;;5095960;28;20107;-83
2023/07/17 08:33:29;;;;;;;16.85;13.57;;;819.30;2073.60;;;;;;5097210;28;20028;-81
2023/07/17 08:35:55;;;;;;;18.35;14.23;;;819.60;1971.20;;;;;;5095350;28;20050;-80
2023/07/17 08:38:21;;;;;;;16.05;14.00;;;819.80;2099.20;;;;;;5094912;28;20047;-81
2023/07/17 08:40:53;;;;;;;17.02;11.13;;;820.10;2099.20;;;;;;5094137;28;20034;-80
2023/07/17 08:43:20;;;;;;;13.63;11.95;;;844.90;2227.20;;;;;;5094807;28;20027;-80
2023/07/17 08:45:47;;;;;;;16.88;13.52;;;844.90;2099.20;;;;;;5095236;28;20072;-80
2023/07/17 08:48:14;;;;;;;16.30;11.52;;;845.20;2073.60;;;;;;5094830;28;20173;-79
2023/07/17 08:50:41;;;;;;;16.92;11.77;;;845.40;2073.60;;;;;;5095042;28;20036;-80
2023/07/17 08:53:09;;;;;;;14.68;11.23;;;845.50;1996.80;;;;;;5094618;28;20024;-80
2023/07/17 08:55:35;;;;;;;13.50;11.00;;;845.70;2150.40;;;;;;5094957;28;20021;-80
2023/07/17 08:58:03;;;;;;;14.73;11.52;;;845.40;2099.20;;;;;;5095344;28;20045;-81
2023/07/17 09:00:33;;;;;;;14.90;10.50;;;845.50;2099.20;;;;;;5094560;28;20048;-80
2023/07/17 09:02:59;;;;;;;14.15;10.82;;;870.70;2124.80;;;;;;5096509;28;20035;-80
2023/07/17 09:05:25;;;;;;;13.63;10.25;;;870.40;2176.00;;;;;;5094738;28;20024;-77
2023/07/17 09:07:50;;;;;;;14.05;11.40;;;845.40;2252.80;;;;;;5094356;28;20035;-78
2023/07/17 09:10:21;;;;;;;13.20;10.45;;;845.00;2355.20;;;;;;5095634;28;20047;-79
2023/07/17 09:12:59;;;;;;;18.40;11.18;;;845.40;2304.00;;;;;;5089446;28;20028;-80
2023/07/17 09:15:26;;;;;;;15.60;11.85;;;845.20;2304.00;;;;;;5091634;28;20075;-80
2023/07/17 09:17:52;;;;;;;15.00;10.57;;;845.50;2278.40;;;;;;5097756;28;20048;-80
2023/07/17 09:20:19;;;;;;;13.23;10.32;;;845.50;2278.40;;;;;;5092274;28;20024;-79
2023/07/17 09:22:45;;;;;;;15.90;10.90;;;845.40;2252.80;;;;;;5094586;28;20017;-79
2023/07/17 09:25:12;;;;;;;16.75;10.88;;;845.10;2329.60;;;;;;5093873;28;20115;-79
2023/07/17 09:27:49;;;;;;;17.17;11.63;;;845.50;2329.60;;;;;;5091379;28;20044;-79
2023/07/17 09:30:17;;;;;;;15.52;11.45;;;870.50;2329.60;;;;;;5093446;28;20027;-76
2023/07/17 09:32:44;;;;;;;14.10;10.85;;;870.90;2329.60;;;;;;5094864;28;20509;-79
2023/07/17 09:35:11;;;;;;;17.40;11.68;;;871.10;2278.40;;;;;;5093269;28;20507;-80
2023/07/17 09:37:40;;;;;;;15.27;12.18;;;871.10;2304.00;;;;;;5073347;28;20032;-80
2023/07/17 09:40:11;;;;;;;13.05;11.68;;;871.30;2304.00;;;;;;5073402;28;20024;-79
2023/07/17 09:42:38;;;;;;;12.02;10.65;;;896.20;2278.40;;;;;;5073495;28;20031;-80
2023/07/17 09:45:04;;;;;;;14.95;10.45;;;896.60;2278.40;;;;;;5087996;28;20024;-80
2023/07/17 09:47:33;;;;;;;15.13;11.35;;;896.30;2304.00;;;;;;5095249;28;20135;-81
2023/07/17 09:50:01;;;;;;;14.30;10.23;;;896.50;2304.00;;;;;;5095980;28;20028;-80
2023/07/17 09:52:31;;;;;;;19.00;10.80;;;896.10;2304.00;;;;;;5097287;28;20032;-80
2023/07/17 09:55:00;;;;;;;16.35;10.65;;;896.50;2329.60;;;;;;5094639;28;20027;-80
2023/07/17 09:57:30;;;;;;;13.00;9.40;;;896.70;2304.00;;;;;;5094232;28;20122;-80
2023/07/17 09:59:58;;;;;;;17.60;10.40;;;896.90;2329.60;;;;;;5094111;28;20025;-80
2023/07/17 10:02:30;;;;;;;17.70;10.63;;;896.90;2304.00;;;;;;5108056;28;20036;-81
2023/07/17 10:04:58;;;;;;;12.73;10.25;;;921.80;2329.60;;;;;;5101917;28;20068;-80
2023/07/17 10:07:26;;;;;;;16.17;12.48;;;922.00;2278.40;;;;;;5095170;28;20020;-81
2023/07/17 10:09:54;;;;;;;13.82;10.40;;;922.20;2278.40;;;;;;5093796;28;20043;-80
2023/07/17 10:12:20;;;;;;;14.82;12.30;;;922.30;2278.40;;;;;;5093974;28;20031;-81
2023/07/17 10:14:48;;;;;;;13.70;10.07;;;922.50;2278.40;;;;;;5093394;28;20028;-80
2023/07/17 10:17:24;;;;;;;17.08;10.32;;;947.30;2227.20;;;;;;5093465;28;20024;-81
2023/07/17 10:19:50;;;;;;;16.70;9.77;;;922.40;2252.80;;;;;;5094353;28;20491;-81
2023/07/17 10:22:16;;;;;;;13.30;10.35;;;922.50;2227.20;;;;;;5110507;28;20028;-80
2023/07/17 10:24:41;;;;;;;14.38;10.25;;;947.20;2252.80;;;;;;5071428;28;20032;-80
2023/07/17 10:27:08;;;;;;;14.15;11.02;;;947.40;2227.20;;;;;;5071783;28;20032;-81
2023/07/17 10:29:44;;;;;;;12.75;9.88;;;948.00;2227.20;;;;;;5055155;28;20052;-81
2023/07/17 10:32:13;;;;;;;13.52;11.57;;;947.90;2278.40;;;;;;5071865;28;20029;-81
2023/07/17 10:34:52;;;;;;;12.60;10.90;;;948.10;2176.00;;;;;;5055442;28;20048;-80
2023/07/17 10:37:40;;;;;;;10.30;9.27;;;948.10;2201.60;;;;;;5055116;28;20081;-80
2023/07/17 10:40:08;;;;;;;11.75;10.10;;;948.10;2176.00;;;;;;5053989;28;20102;-81
2023/07/17 10:42:34;;;;;;;13.55;10.48;;;948.10;2176.00;;;;;;5055275;28;20032;-80
2023/07/17 10:45:10;;;;;;;14.73;10.45;;;947.70;2176.00;;;;;;5054603;28;20500;-78
2023/07/17 10:47:36;;;;;;;17.00;14.63;;;947.40;2201.60;;;;;;5071504;28;20040;-79
2023/07/17 10:50:05;;;;;;;18.02;11.80;;;947.90;2176.00;;;;;;5055610;28;20032;-80
2023/07/17 10:52:36;;;;;;;16.35;10.90;;;948.10;2150.40;;;;;;5054682;28;20031;-80
2023/07/17 10:55:06;;;;;;;11.77;10.00;;;972.80;2124.80;;;;;;5062578;28;20032;-80
2023/07/17 10:57:32;;;;;;;13.70;9.57;;;947.60;2124.80;;;;;;5092403;28;20028;-80
2023/07/17 10:59:58;;;;;;;16.83;11.25;;;947.70;2124.80;;;;;;5108838;28;20039;-80
2023/07/17 11:02:27;;;;;;;12.13;10.00;;;948.10;2150.40;;;;;;5093857;28;20020;-80
2023/07/17 11:04:54;;;;;;;15.02;11.20;;;973.10;2124.80;;;;;;5094279;28;20402;-80
2023/07/17 11:07:20;;;;;;;11.93;10.23;;;973.20;2124.80;;;;;;5093175;28;20022;-79
2023/07/17 11:09:46;;;;;;;14.23;9.73;;;973.20;2124.80;;;;;;5092216;28;20135;-80
2023/07/17 11:12:12;;;;;;;14.77;10.10;;;973.30;2124.80;;;;;;5109581;28;20032;-82
2023/07/17 11:14:38;;;;;;;17.15;9.73;;;973.30;2124.80;;;;;;5093580;28;20076;-82
2023/07/17 11:17:04;;;;;;;12.82;9.90;;;973.30;2073.60;;;;;;5110676;28;20028;-82
2023/07/17 11:19:29;;;;;;;11.48;9.20;;;973.10;2073.60;;;;;;5110862;28;20122;-82
2023/07/17 11:21:55;;;;;;;13.38;9.30;;;973.20;2073.60;;;;;;5110020;28;20070;-82
2023/07/17 11:24:23;;;;;;;11.20;8.75;;;973.40;2099.20;;;;;;5109192;28;20021;-81
2023/07/17 11:26:49;;;;;;;13.65;9.95;;;973.50;2048.00;;;;;;5109630;28;20028;-81
2023/07/17 11:29:15;;;;;;;12.70;9.00;;;973.50;2048.00;;;;;;5094031;28;20032;-82
2023/07/17 11:31:40;;;;;;;9.95;8.73;;;973.70;2048.00;;;;;;5109316;28;20024;-82
2023/07/17 11:34:11;;;;;;;12.55;9.43;;;998.50;2073.60;;;;;;5110836;28;20409;-82
2023/07/17 11:36:43;;;;;;;12.80;8.13;;;998.50;2048.00;;;;;;5105783;28;20031;-83
2023/07/17 11:39:14;;;;;;;12.98;9.18;;;998.40;2022.40;;;;;;5089851;28;20485;-83
2023/07/17 11:41:49;;;;;;;10.80;8.18;;;998.40;2022.40;;;;;;5089230;28;20074;-82
2023/07/17 11:44:33;;;;;;;12.52;8.38;;;998.70;1996.80;;;;;;5074231;28;20040;-83
2023/07/17 11:47:01;;;;;;;9.50;7.40;;;999.00;1971.20;;;;;;5089972;28;20047;-82
2023/07/17 11:49:28;;;;;;;8.00;7.10;;;998.60;1894.40;;;;;;5088878;28;20124;-83
2023/07/17 11:51:55;;;;;;;11.05;7.75;;;998.80;1894.40;;;;;;5093570;28;20026;-82
2023/07/17 11:54:21;;;;;;;10.48;7.28;;;999.10;1843.20;;;;;;5092866;28;20024;-81
2023/07/17 11:56:47;;;;;;;13.38;7.95;;;998.70;1843.20;;;;;;5093209;28;20434;-82
2023/07/17 11:59:31;;;;;;;8.27;6.95;;;998.90;1817.60;;;;;;5092995;28;20025;-82